Time;durP1;ratioP1;P1;durP2;ratioP2;P2;SDS_P1;SDS_P2;PMS_P1;PMS_P2;Temp;Humidity;BMP_temperature;BMP_pressure;BME280_temperature;BME280_humidity;BME280_pressure;Samples;Min_cycle;Max_cycle;Signal;HPM_P1;HPM_P2
2021/03/08 00:01:17;;;;;;;15.68;10.18;;;3.90;59.70;;;;;;5074066;28;20138;-68
2021/03/08 00:03:42;;;;;;;18.42;10.70;;;3.90;59.70;;;;;;5074773;28;20032;-67
2021/03/08 00:06:08;;;;;;;16.98;10.73;;;3.90;59.70;;;;;;5073787;28;20024;-67
2021/03/08 00:08:34;;;;;;;16.15;10.05;;;3.90;59.70;;;;;;5060282;28;20044;-67
2021/03/08 00:10:59;;;;;;;15.55;10.00;;;3.90;59.80;;;;;;5056324;28;20063;-68
2021/03/08 00:13:25;;;;;;;17.00;10.13;;;3.90;59.80;;;;;;5074061;28;20436;-67
2021/03/08 00:15:51;;;;;;;16.40;10.55;;;3.90;59.90;;;;;;5076416;28;20025;-67
2021/03/08 00:18:16;;;;;;;16.63;11.02;;;3.90;59.90;;;;;;5078174;28;20051;-67
2021/03/08 00:20:42;;;;;;;17.17;10.95;;;3.90;59.80;;;;;;5074128;28;20051;-68
2021/03/08 00:23:08;;;;;;;17.20;10.63;;;3.90;60.00;;;;;;5073833;28;20352;-67
2021/03/08 00:25:34;;;;;;;16.52;10.85;;;3.90;60.10;;;;;;5056104;28;20100;-67
2021/03/08 00:28:01;;;;;;;17.75;10.65;;;3.80;60.10;;;;;;5054960;28;20463;-67
2021/03/08 00:30:27;;;;;;;14.85;10.38;;;3.80;60.10;;;;;;5073892;28;20123;-67
2021/03/08 00:32:53;;;;;;;19.38;10.35;;;3.80;60.30;;;;;;5074022;28;20027;-67
2021/03/08 00:35:19;;;;;;;18.73;10.88;;;3.80;60.40;;;;;;5071853;28;20378;-68
2021/03/08 00:37:45;;;;;;;19.00;11.50;;;3.90;60.50;;;;;;5074230;28;20485;-67
2021/03/08 00:40:17;;;;;;;18.70;11.60;;;3.80;60.50;;;;;;5073599;28;20470;-68
2021/03/08 00:42:43;;;;;;;19.40;11.55;;;3.90;60.50;;;;;;5073353;28;20024;-67
2021/03/08 00:45:15;;;;;;;17.08;11.38;;;3.90;60.40;;;;;;5073530;28;20024;-67
2021/03/08 00:47:41;;;;;;;19.45;11.40;;;3.90;60.40;;;;;;5055843;28;20032;-67
2021/03/08 00:50:11;;;;;;;30.23;14.77;;;3.90;60.40;;;;;;5054934;28;20032;-67
2021/03/08 00:52:37;;;;;;;32.30;16.55;;;3.90;60.30;;;;;;5073444;28;20029;-67
2021/03/08 00:55:03;;;;;;;40.75;19.13;;;3.90;60.30;;;;;;5073323;28;20119;-67
2021/03/08 00:57:29;;;;;;;41.70;17.60;;;3.80;60.40;;;;;;5072477;28;20036;-67
2021/03/08 00:59:55;;;;;;;37.65;18.42;;;3.70;60.50;;;;;;5072842;28;20038;-67
2021/03/08 01:02:21;;;;;;;25.38;13.88;;;3.60;60.70;;;;;;5072340;28;20424;-68
2021/03/08 01:04:46;;;;;;;27.58;15.23;;;3.60;61.00;;;;;;5055330;28;20036;-67
2021/03/08 01:07:12;;;;;;;23.77;13.77;;;3.50;61.20;;;;;;5073050;28;20154;-67
2021/03/08 01:09:38;;;;;;;30.55;14.02;;;3.40;62.00;;;;;;5054663;28;20024;-67
2021/03/08 01:12:06;;;;;;;40.95;17.58;;;3.40;61.50;;;;;;5073384;28;20029;-67
2021/03/08 01:14:31;;;;;;;39.13;17.17;;;3.40;61.70;;;;;;5055067;28;20055;-67
2021/03/08 01:16:57;;;;;;;38.20;16.65;;;3.30;61.70;;;;;;5072636;28;20056;-67
2021/03/08 01:19:23;;;;;;;25.77;13.45;;;3.30;61.90;;;;;;5072811;28;20036;-67
2021/03/08 01:21:50;;;;;;;33.33;16.45;;;3.30;62.10;;;;;;5071806;28;20024;-68
2021/03/08 01:24:16;;;;;;;22.83;13.45;;;3.30;62.10;;;;;;5073311;28;20043;-67
2021/03/08 01:26:41;;;;;;;24.45;13.52;;;3.30;62.10;;;;;;5073003;28;20032;-68
2021/03/08 01:29:07;;;;;;;30.85;14.32;;;3.30;62.30;;;;;;5072425;28;20437;-67
2021/03/08 01:31:33;;;;;;;21.83;13.38;;;3.30;62.30;;;;;;5073053;28;20039;-68
2021/03/08 01:33:59;;;;;;;22.80;13.43;;;3.30;62.40;;;;;;5055003;28;20056;-68
2021/03/08 01:36:24;;;;;;;23.38;13.05;;;3.20;62.60;;;;;;5072710;28;20047;-68
2021/03/08 01:38:50;;;;;;;22.50;13.65;;;3.30;62.80;;;;;;5071666;28;20045;-67
2021/03/08 01:41:16;;;;;;;24.35;13.70;;;3.30;62.90;;;;;;5072511;28;20029;-68
2021/03/08 01:43:42;;;;;;;25.65;15.02;;;3.30;63.00;;;;;;5054873;28;20464;-68
2021/03/08 01:46:08;;;;;;;24.95;13.73;;;3.30;62.90;;;;;;5072305;28;20122;-68
2021/03/08 01:48:34;;;;;;;23.65;13.07;;;3.40;63.00;;;;;;5054071;28;20044;-67
2021/03/08 01:51:00;;;;;;;23.20;13.75;;;3.30;62.80;;;;;;5072525;28;20025;-68
2021/03/08 01:53:28;;;;;;;24.83;14.70;;;3.30;63.00;;;;;;5071827;28;20032;-68
2021/03/08 01:55:54;;;;;;;27.15;14.95;;;3.30;63.10;;;;;;5071939;28;20413;-68
2021/03/08 01:58:20;;;;;;;26.83;13.13;;;3.30;63.10;;;;;;5054384;28;20036;-67
2021/03/08 02:00:46;;;;;;;24.65;13.43;;;3.20;63.10;;;;;;5072263;28;20031;-68
2021/03/08 02:03:12;;;;;;;22.45;13.30;;;3.10;63.30;;;;;;5066646;28;20017;-69
2021/03/08 02:05:41;;;;;;;22.05;13.40;;;3.10;63.40;;;;;;5052814;28;20036;-68
2021/03/08 02:08:08;;;;;;;21.40;12.30;;;3.10;63.40;;;;;;5056693;28;20032;-68
2021/03/08 02:10:37;;;;;;;20.45;12.55;;;3.10;63.50;;;;;;5056164;28;20072;-67
2021/03/08 02:13:28;;;;;;;24.67;12.75;;;3.10;63.50;;;;;;5057600;28;20115;-68
2021/03/08 02:16:13;;;;;;;22.50;13.70;;;3.10;63.70;;;;;;5057942;28;20133;-68
2021/03/08 02:19:05;;;;;;;24.10;12.23;;;3.10;63.80;;;;;;5055844;28;20033;-68
2021/03/08 02:21:52;;;;;;;24.35;12.13;;;3.20;63.80;;;;;;5051582;28;20033;-69
2021/03/08 02:24:27;;;;;;;24.95;13.38;;;3.20;63.70;;;;;;5058952;28;20120;-68
2021/03/08 02:27:14;;;;;;;26.40;13.70;;;3.10;63.70;;;;;;5052452;28;20029;-68
2021/03/08 02:30:02;;;;;;;26.10;14.93;;;3.10;63.70;;;;;;5033619;28;20044;-68
2021/03/08 02:32:35;;;;;;;32.72;16.08;;;3.00;63.80;;;;;;5039262;28;20036;-68
2021/03/08 02:35:12;;;;;;;40.83;17.15;;;3.00;63.90;;;;;;5058271;28;20028;-68
2021/03/08 02:38:03;;;;;;;60.00;25.95;;;2.90;64.00;;;;;;5052356;28;20040;-68
2021/03/08 02:40:40;;;;;;;52.83;24.63;;;2.80;64.30;;;;;;5027197;28;20115;-68
2021/03/08 02:43:17;;;;;;;61.47;25.00;;;2.80;64.50;;;;;;5043650;28;20505;-68
2021/03/08 02:45:46;;;;;;;57.78;23.13;;;2.70;64.70;;;;;;5050729;28;20017;-68
2021/03/08 02:48:13;;;;;;;54.92;23.92;;;2.60;65.00;;;;;;5052372;28;20033;-68
2021/03/08 02:50:40;;;;;;;52.67;23.05;;;2.60;65.20;;;;;;5034290;28;20476;-68
2021/03/08 02:53:10;;;;;;;40.78;18.45;;;2.60;65.30;;;;;;5034891;28;20048;-68
2021/03/08 02:55:52;;;;;;;37.83;18.15;;;2.60;65.60;;;;;;5051983;28;20029;-68
2021/03/08 02:58:20;;;;;;;33.67;16.92;;;2.70;65.60;;;;;;5053763;28;20479;-68
2021/03/08 03:00:47;;;;;;;27.05;14.45;;;2.60;65.50;;;;;;5055874;28;20025;-68
2021/03/08 03:03:14;;;;;;;30.40;16.10;;;2.60;65.80;;;;;;5042179;28;20117;-67
2021/03/08 03:05:41;;;;;;;26.67;15.23;;;2.60;65.80;;;;;;5055607;28;20029;-68
2021/03/08 03:08:11;;;;;;;25.83;14.43;;;2.50;66.00;;;;;;5071035;28;20037;-68
2021/03/08 03:10:39;;;;;;;34.45;15.82;;;2.50;66.10;;;;;;5055817;28;20025;-68
2021/03/08 03:13:05;;;;;;;26.88;13.98;;;2.50;66.30;;;;;;5065161;28;20111;-67
2021/03/08 03:15:36;;;;;;;26.30;15.05;;;2.40;66.10;;;;;;5055453;28;20037;-68
2021/03/08 03:18:03;;;;;;;28.30;15.10;;;2.40;66.30;;;;;;5055282;28;20029;-68
2021/03/08 03:20:30;;;;;;;25.95;14.80;;;2.40;66.20;;;;;;5061055;28;20025;-68
2021/03/08 03:22:57;;;;;;;26.45;15.35;;;2.30;66.30;;;;;;5069956;28;20052;-68
2021/03/08 03:25:24;;;;;;;32.85;16.48;;;2.20;66.30;;;;;;5055325;28;20394;-67
2021/03/08 03:27:51;;;;;;;31.27;16.80;;;2.20;66.40;;;;;;5054987;28;20040;-67
2021/03/08 03:30:21;;;;;;;29.05;15.73;;;2.10;66.50;;;;;;5057072;28;20031;-70
2021/03/08 03:32:47;;;;;;;29.45;16.95;;;2.10;66.70;;;;;;5056183;28;20390;-68
2021/03/08 03:35:14;;;;;;;26.42;16.38;;;2.00;66.80;;;;;;5058460;28;20021;-68
2021/03/08 03:37:42;;;;;;;26.33;16.77;;;2.00;66.90;;;;;;5037056;28;20048;-68
2021/03/08 03:40:09;;;;;;;25.55;14.60;;;1.90;67.10;;;;;;5037171;28;20032;-68
2021/03/08 03:42:35;;;;;;;26.23;15.20;;;1.90;67.20;;;;;;5041032;28;20028;-68
2021/03/08 03:45:06;;;;;;;26.05;14.73;;;1.90;67.40;;;;;;5059556;28;20028;-68
2021/03/08 03:47:33;;;;;;;28.92;15.68;;;1.80;67.60;;;;;;5055258;28;20060;-68
2021/03/08 03:49:59;;;;;;;25.58;15.30;;;1.90;67.60;;;;;;5055001;28;20074;-68
2021/03/08 03:52:25;;;;;;;27.27;14.93;;;1.80;67.50;;;;;;5059331;28;20055;-68
2021/03/08 03:54:51;;;;;;;25.65;14.27;;;1.80;67.50;;;;;;5062807;28;20060;-67
2021/03/08 03:57:17;;;;;;;23.92;13.65;;;1.80;67.60;;;;;;5054185;28;20033;-67
2021/03/08 04:00:05;;;;;;;19.35;13.35;;;1.80;67.80;;;;;;5036847;28;20426;-67
2021/03/08 04:02:37;;;;;;;26.15;13.65;;;1.70;68.00;;;;;;5037270;28;20429;-67
2021/03/08 04:05:03;;;;;;;23.25;13.23;;;1.70;68.00;;;;;;5054273;28;20036;-66
2021/03/08 04:07:35;;;;;;;21.08;12.30;;;1.80;68.00;;;;;;5054284;28;20029;-66
2021/03/08 04:10:02;;;;;;;22.20;13.40;;;1.80;68.10;;;;;;5035602;28;20086;-66
2021/03/08 04:12:33;;;;;;;20.20;12.55;;;1.80;68.10;;;;;;5049213;28;20415;-66
2021/03/08 04:15:04;;;;;;;21.02;13.13;;;1.80;68.20;;;;;;5052310;28;20025;-67
2021/03/08 04:17:34;;;;;;;21.42;13.35;;;1.80;68.20;;;;;;5055063;28;20033;-66
2021/03/08 04:20:01;;;;;;;22.73;13.30;;;1.70;68.20;;;;;;5055274;28;20048;-66
2021/03/08 04:22:31;;;;;;;22.45;13.05;;;1.70;68.30;;;;;;5067098;28;20025;-67
2021/03/08 04:24:58;;;;;;;22.27;13.13;;;1.70;68.30;;;;;;5056147;28;20029;-67
2021/03/08 04:27:24;;;;;;;17.88;12.32;;;1.70;68.30;;;;;;5054006;28;20108;-66
2021/03/08 04:29:51;;;;;;;17.50;11.98;;;1.70;68.50;;;;;;5036181;28;20033;-67
2021/03/08 04:32:19;;;;;;;21.45;12.73;;;1.70;68.60;;;;;;5054268;28;20574;-66
2021/03/08 04:34:46;;;;;;;18.88;11.82;;;1.80;68.80;;;;;;5040656;28;20535;-67
2021/03/08 04:37:13;;;;;;;21.48;12.48;;;1.80;68.80;;;;;;5053440;28;20025;-66
2021/03/08 04:39:40;;;;;;;20.52;12.98;;;1.80;69.10;;;;;;5036230;28;20228;-66
2021/03/08 04:42:07;;;;;;;19.20;11.60;;;1.90;69.20;;;;;;5047594;28;20025;-67
2021/03/08 04:44:40;;;;;;;22.25;14.05;;;2.00;69.40;;;;;;5066609;28;20051;-67
2021/03/08 04:47:07;;;;;;;23.20;12.40;;;2.20;69.60;;;;;;5066746;28;20039;-66
2021/03/08 04:49:34;;;;;;;17.95;11.80;;;2.40;69.70;;;;;;5054002;28;20063;-67
2021/03/08 04:52:00;;;;;;;19.88;12.07;;;2.50;69.10;;;;;;5062228;28;20024;-67
2021/03/08 04:54:28;;;;;;;18.55;11.45;;;2.70;68.80;;;;;;5036182;28;20021;-67
2021/03/08 04:56:55;;;;;;;17.52;11.07;;;2.70;68.30;;;;;;5056993;28;20103;-67
2021/03/08 04:59:22;;;;;;;18.67;11.20;;;2.90;68.10;;;;;;5057615;28;20040;-67
2021/03/08 05:01:49;;;;;;;20.50;12.18;;;2.80;67.60;;;;;;5049822;28;20033;-67
2021/03/08 05:04:17;;;;;;;18.95;11.73;;;2.90;67.50;;;;;;5053902;28;20017;-67
2021/03/08 05:06:44;;;;;;;20.42;12.32;;;2.90;67.50;;;;;;5056526;28;20032;-67
2021/03/08 05:09:14;;;;;;;22.75;13.05;;;2.90;67.50;;;;;;5035027;28;20032;-68
2021/03/08 05:11:41;;;;;;;21.98;11.88;;;3.00;67.70;;;;;;5053214;28;20429;-67
2021/03/08 05:14:14;;;;;;;20.13;12.57;;;3.00;67.70;;;;;;5068783;28;20036;-67
2021/03/08 05:16:43;;;;;;;21.60;13.25;;;3.20;67.80;;;;;;5058525;28;20448;-67
2021/03/08 05:19:10;;;;;;;21.23;13.05;;;3.50;68.60;;;;;;5058986;28;20025;-67
2021/03/08 05:21:36;;;;;;;21.58;12.55;;;4.10;69.40;;;;;;5035078;28;20028;-67
2021/03/08 05:24:04;;;;;;;22.33;14.05;;;4.70;68.90;;;;;;5053313;28;20021;-68
2021/03/08 05:26:30;;;;;;;20.13;12.25;;;5.10;66.70;;;;;;5052561;28;20021;-67
2021/03/08 05:28:57;;;;;;;18.08;12.35;;;5.40;65.10;;;;;;5035077;28;20048;-72
2021/03/08 05:31:27;;;;;;;18.02;11.05;;;5.40;64.10;;;;;;5063176;28;20381;-68
2021/03/08 05:33:58;;;;;;;17.92;12.10;;;5.50;63.40;;;;;;5064682;28;20032;-67
2021/03/08 05:36:24;;;;;;;18.70;11.63;;;5.50;62.30;;;;;;5063478;28;20021;-69
2021/03/08 05:38:51;;;;;;;20.08;12.07;;;5.40;62.20;;;;;;5036034;28;20052;-67
2021/03/08 05:41:22;;;;;;;20.33;12.60;;;5.50;62.50;;;;;;5052727;28;20028;-67
2021/03/08 05:43:49;;;;;;;20.75;12.27;;;5.60;62.10;;;;;;5052410;28;20021;-67
2021/03/08 05:46:39;;;;;;;20.05;12.43;;;5.70;61.90;;;;;;5062897;28;20078;-68
2021/03/08 05:49:23;;;;;;;21.75;12.40;;;5.70;61.40;;;;;;5055592;28;20043;-68
2021/03/08 05:52:15;;;;;;;21.85;13.90;;;5.70;61.00;;;;;;5057594;28;20029;-67
2021/03/08 05:55:11;;;;;;;21.95;13.55;;;5.70;61.30;;;;;;5061529;28;20467;-67
2021/03/08 05:58:09;;;;;;;23.67;14.60;;;5.70;60.80;;;;;;5052921;28;20413;-67
2021/03/08 06:01:12;;;;;;;21.92;14.15;;;5.70;60.40;;;;;;5064941;28;20060;-67
2021/03/08 06:04:15;;;;;;;22.80;14.32;;;5.80;60.00;;;;;;5077087;28;20111;-69
2021/03/08 06:07:17;;;;;;;20.55;13.25;;;5.80;59.80;;;;;;5055181;28;20071;-67
2021/03/08 06:10:01;;;;;;;21.55;13.55;;;5.80;59.60;;;;;;5063030;28;20036;-67
2021/03/08 06:12:38;;;;;;;21.20;12.20;;;5.90;59.40;;;;;;5062472;28;20033;-67
2021/03/08 06:15:13;;;;;;;21.45;13.13;;;5.90;58.90;;;;;;5046987;28;20033;-68
2021/03/08 06:17:40;;;;;;;21.60;12.13;;;5.90;58.60;;;;;;5055174;28;20024;-67
2021/03/08 06:20:07;;;;;;;22.27;13.25;;;5.80;58.30;;;;;;5076183;28;20036;-66
2021/03/08 06:22:34;;;;;;;21.90;12.75;;;5.80;58.60;;;;;;5071152;28;20031;-67
2021/03/08 06:25:01;;;;;;;19.15;12.38;;;5.80;58.50;;;;;;5056487;28;20064;-67
2021/03/08 06:27:28;;;;;;;19.42;13.32;;;5.70;58.60;;;;;;5077590;28;20058;-67
2021/03/08 06:29:54;;;;;;;19.10;12.32;;;5.80;58.50;;;;;;5073539;28;20035;-67
2021/03/08 06:32:20;;;;;;;16.70;11.55;;;5.80;58.30;;;;;;5081499;28;20107;-68
2021/03/08 06:34:46;;;;;;;18.48;12.30;;;5.80;58.50;;;;;;5070286;28;20519;-69
2021/03/08 06:37:13;;;;;;;20.63;12.60;;;5.80;58.20;;;;;;5057091;28;20490;-68
2021/03/08 06:39:41;;;;;;;20.10;12.25;;;5.80;58.10;;;;;;5066650;28;20025;-69
2021/03/08 06:42:09;;;;;;;19.45;11.63;;;5.70;58.20;;;;;;5054605;28;20253;-72
2021/03/08 06:44:34;;;;;;;17.02;11.73;;;5.70;58.10;;;;;;5066938;28;20040;-69
2021/03/08 06:47:03;;;;;;;19.50;12.52;;;5.70;58.40;;;;;;5078713;28;20029;-69
2021/03/08 06:49:32;;;;;;;21.27;12.20;;;5.60;58.40;;;;;;5069560;28;20025;-72
2021/03/08 06:52:15;;;;;;;21.35;12.50;;;5.60;58.60;;;;;;5054425;28;20467;-69
2021/03/08 06:54:44;;;;;;;21.70;13.02;;;5.60;58.70;;;;;;5057262;28;20025;-69
2021/03/08 06:57:23;;;;;;;21.25;12.85;;;5.60;58.70;;;;;;5053839;28;20495;-69
2021/03/08 06:59:56;;;;;;;21.27;12.18;;;5.60;58.70;;;;;;5070537;28;20099;-70
2021/03/08 07:02:33;;;;;;;20.65;12.30;;;5.50;58.80;;;;;;5050224;28;20107;-69
2021/03/08 07:04:59;;;;;;;18.58;12.48;;;5.60;58.80;;;;;;5047157;28;20024;-70
2021/03/08 07:07:25;;;;;;;23.40;14.00;;;5.70;58.70;;;;;;5064926;28;20035;-69
2021/03/08 07:09:52;;;;;;;22.08;13.52;;;5.70;58.60;;;;;;5067241;28;20041;-70
2021/03/08 07:12:19;;;;;;;19.27;12.23;;;5.60;58.60;;;;;;5056062;28;20071;-70
2021/03/08 07:14:59;;;;;;;20.38;13.00;;;5.60;58.90;;;;;;5038731;28;20075;-69
2021/03/08 07:17:31;;;;;;;22.33;13.13;;;5.70;59.10;;;;;;5048837;28;20032;-68
2021/03/08 07:19:58;;;;;;;18.77;11.95;;;5.70;59.00;;;;;;5051993;28;20029;-68
2021/03/08 07:22:54;;;;;;;22.65;13.35;;;5.70;59.00;;;;;;5040488;28;20025;-68
2021/03/08 07:25:29;;;;;;;22.08;13.27;;;5.80;59.10;;;;;;5038492;28;20167;-68
2021/03/08 07:28:02;;;;;;;20.88;14.05;;;5.90;59.00;;;;;;5062312;28;20092;-75
2021/03/08 07:30:32;;;;;;;23.80;14.07;;;5.90;58.90;;;;;;5048914;28;20025;-74
2021/03/08 07:33:01;;;;;;;18.77;12.90;;;5.90;58.90;;;;;;5055674;28;20410;-69
2021/03/08 07:35:41;;;;;;;21.00;13.10;;;5.90;58.80;;;;;;5054393;28;20070;-68
2021/03/08 07:38:31;;;;;;;20.67;12.48;;;5.90;58.80;;;;;;5074436;28;20048;-68
2021/03/08 07:41:18;;;;;;;21.08;12.77;;;6.00;58.80;;;;;;5056735;28;20539;-69
2021/03/08 07:43:46;;;;;;;24.25;13.48;;;6.00;58.70;;;;;;5085812;28;20048;-69
2021/03/08 07:46:35;;;;;;;21.05;12.65;;;6.10;58.60;;;;;;5076174;28;20107;-68
2021/03/08 07:49:06;;;;;;;22.17;13.57;;;6.10;58.40;;;;;;5055978;28;20055;-69
2021/03/08 07:51:32;;;;;;;20.52;12.68;;;6.10;58.50;;;;;;5070704;28;20037;-69
2021/03/08 07:54:00;;;;;;;20.80;13.43;;;6.10;58.80;;;;;;5076070;28;20024;-76
2021/03/08 07:56:26;;;;;;;22.23;13.15;;;6.10;58.80;;;;;;5058221;28;20020;-68
2021/03/08 07:58:53;;;;;;;22.17;13.88;;;6.20;58.80;;;;;;5074065;28;20376;-68
2021/03/08 08:01:20;;;;;;;20.92;13.23;;;6.20;58.80;;;;;;5058918;28;20064;-69
2021/03/08 08:03:46;;;;;;;20.38;12.90;;;6.30;58.90;;;;;;5066747;28;20024;-70
2021/03/08 08:06:13;;;;;;;20.77;13.60;;;6.30;58.80;;;;;;5046568;28;20064;-69
2021/03/08 08:08:45;;;;;;;22.45;13.18;;;6.30;58.90;;;;;;5063495;28;20033;-70
2021/03/08 08:11:12;;;;;;;20.90;14.25;;;6.40;58.70;;;;;;5053992;28;20024;-68
2021/03/08 08:13:45;;;;;;;20.75;13.60;;;6.40;58.50;;;;;;5067832;28;20486;-69
2021/03/08 08:16:12;;;;;;;23.15;13.35;;;6.30;58.50;;;;;;5047703;28;20043;-68
2021/03/08 08:18:40;;;;;;;22.83;13.95;;;6.30;58.80;;;;;;5044973;28;20055;-69
2021/03/08 08:21:14;;;;;;;23.10;14.25;;;6.40;58.80;;;;;;5049542;28;20410;-70
2021/03/08 08:23:43;;;;;;;18.65;12.75;;;6.50;58.90;;;;;;5042980;28;20178;-69
2021/03/08 08:26:12;;;;;;;19.25;12.07;;;6.70;58.80;;;;;;5062218;28;20028;-69
2021/03/08 08:28:44;;;;;;;22.42;12.82;;;6.70;58.50;;;;;;5055704;28;20064;-69
2021/03/08 08:31:10;;;;;;;19.30;11.65;;;6.80;58.40;;;;;;5054064;28;20127;-70
2021/03/08 08:33:36;;;;;;;19.48;12.52;;;6.90;58.20;;;;;;5076018;28;20032;-68
2021/03/08 08:36:10;;;;;;;21.13;13.40;;;7.00;58.10;;;;;;5056979;28;20029;-69
2021/03/08 08:38:37;;;;;;;20.95;12.77;;;7.00;58.20;;;;;;5064649;28;20049;-71
2021/03/08 08:41:29;;;;;;;18.05;12.48;;;7.20;58.20;;;;;;5061716;28;20108;-70
2021/03/08 08:44:12;;;;;;;21.67;12.75;;;7.30;58.10;;;;;;5071994;28;20360;-75
2021/03/08 08:46:40;;;;;;;20.55;12.18;;;7.30;57.70;;;;;;5062146;28;20126;-78
2021/03/08 08:52:05;;;;;;;23.52;12.52;;;7.50;57.50;;;;;;5074431;28;20115;-71
2021/03/08 08:54:31;;;;;;;20.58;13.15;;;7.50;57.60;;;;;;5074035;28;20034;-72
2021/03/08 08:57:19;;;;;;;20.80;13.40;;;7.70;57.60;;;;;;5050760;28;20029;-75
2021/03/08 09:00:26;;;;;;;21.83;13.48;;;7.80;57.50;;;;;;5059264;28;20029;-72
2021/03/08 09:03:08;;;;;;;18.55;11.95;;;8.00;57.20;;;;;;5058568;28;20027;-71
2021/03/08 09:05:34;;;;;;;20.58;12.88;;;8.00;57.20;;;;;;5056282;28;20126;-72
2021/03/08 09:08:18;;;;;;;17.35;11.35;;;8.20;57.00;;;;;;5071980;28;20123;-72
2021/03/08 09:10:44;;;;;;;19.48;12.70;;;8.30;56.50;;;;;;5081138;28;20425;-72
2021/03/08 09:13:13;;;;;;;21.38;12.13;;;8.50;56.30;;;;;;5054918;28;20052;-72
2021/03/08 09:16:10;;;;;;;17.33;11.38;;;8.60;56.30;;;;;;5043622;28;20458;-74
2021/03/08 09:19:31;;;;;;;19.98;11.95;;;8.80;55.80;;;;;;5041064;28;20475;-76
2021/03/08 09:22:42;;;;;;;;;;;;;;;;;;;;;
2021/03/08 09:25:13;;;;;;;17.40;11.15;;;8.90;54.90;;;;;;5072463;28;20463;-73
2021/03/08 09:28:01;;;;;;;20.85;12.85;;;8.80;54.90;;;;;;5068614;28;20078;-74
2021/03/08 09:31:06;;;;;;;18.67;11.80;;;8.70;55.10;;;;;;5055047;28;20058;-73
2021/03/08 09:33:33;;;;;;;19.13;12.10;;;8.70;55.30;;;;;;4984736;28;20108;-73
2021/03/08 09:35:59;;;;;;;17.20;11.57;;;8.80;55.50;;;;;;4996780;28;20037;-71
2021/03/08 09:38:30;;;;;;;17.88;11.95;;;9.00;54.90;;;;;;5018311;28;20038;-73
2021/03/08 09:40:58;;;;;;;18.65;12.32;;;9.10;54.50;;;;;;5043490;28;20063;-72
2021/03/08 09:43:26;;;;;;;19.83;11.93;;;9.10;54.30;;;;;;5026064;28;20052;-77
2021/03/08 09:46:02;;;;;;;16.55;11.77;;;9.20;54.50;;;;;;5033297;28;20033;-77
2021/03/08 09:48:29;;;;;;;17.30;11.70;;;9.10;53.50;;;;;;5046935;28;20058;-76
2021/03/08 09:51:13;;;;;;;18.40;12.05;;;9.10;53.40;;;;;;5037096;28;20029;-70
2021/03/08 09:53:41;;;;;;;19.63;12.18;;;9.00;53.20;;;;;;5041005;28;20025;-70
2021/03/08 09:56:18;;;;;;;16.92;10.88;;;8.70;53.30;;;;;;5036195;28;20069;-73
2021/03/08 09:58:44;;;;;;;18.63;11.88;;;8.60;53.50;;;;;;5025988;28;20024;-76
2021/03/08 10:01:39;;;;;;;17.08;12.23;;;8.40;53.50;;;;;;5033037;28;20483;-78
2021/03/08 10:04:17;;;;;;;20.10;12.55;;;8.20;54.10;;;;;;5028895;28;20044;-72
2021/03/08 10:06:45;;;;;;;19.33;12.85;;;8.00;54.50;;;;;;5044734;28;20025;-72
2021/03/08 10:09:22;;;;;;;19.45;12.43;;;7.90;54.70;;;;;;5056174;28;20029;-72
2021/03/08 10:11:48;;;;;;;19.90;12.73;;;7.70;55.20;;;;;;5057849;28;20051;-73
2021/03/08 10:15:19;;;;;;;;;;;;;;;;;;;;;
2021/03/08 10:18:37;;;;;;;22.15;13.50;;;7.50;55.50;;;;;;5056546;28;20032;-71
2021/03/08 10:21:06;;;;;;;20.83;12.60;;;7.40;55.90;;;;;;4964683;28;20173;-73
2021/03/08 10:23:35;;;;;;;21.38;13.48;;;7.40;55.80;;;;;;4990479;28;20030;-73
2021/03/08 10:26:14;;;;;;;24.17;14.90;;;7.30;55.90;;;;;;5032198;28;20013;-73
2021/03/08 10:28:51;;;;;;;21.85;13.77;;;7.10;56.20;;;;;;5029086;28;20029;-74
2021/03/08 10:31:27;;;;;;;20.02;13.35;;;7.00;56.60;;;;;;5065276;28;20721;-74
2021/03/08 10:33:59;;;;;;;20.42;13.93;;;6.90;56.70;;;;;;5031776;28;20021;-75
2021/03/08 10:36:30;;;;;;;22.50;13.20;;;6.80;56.90;;;;;;5038337;28;20025;-74
2021/03/08 10:38:59;;;;;;;26.35;13.80;;;6.70;57.10;;;;;;5037229;28;20131;-75
2021/03/08 10:41:27;;;;;;;21.48;13.32;;;6.60;57.20;;;;;;5063960;28;20036;-74
2021/03/08 10:43:55;;;;;;;23.90;15.77;;;6.50;57.60;;;;;;5056847;28;20058;-74
2021/03/08 10:46:21;;;;;;;24.50;14.80;;;6.40;57.80;;;;;;5062008;28;20021;-74
2021/03/08 10:48:57;;;;;;;24.98;14.45;;;6.30;58.10;;;;;;5064070;28;20387;-73
2021/03/08 10:51:25;;;;;;;;;;;6.10;58.60;;;;;;5067321;28;20114;-73
2021/03/08 10:54:02;;;;;;;24.45;14.48;;;6.10;58.50;;;;;;5061178;28;20366;-73
2021/03/08 10:56:37;;;;;;;27.30;15.77;;;6.00;59.00;;;;;;5066584;28;20024;-74
2021/03/08 10:59:20;;;;;;;22.70;14.27;;;5.90;59.30;;;;;;5070006;28;20050;-74
2021/03/08 11:01:59;;;;;;;25.20;15.13;;;5.70;59.80;;;;;;5085439;28;20038;-74
2021/03/08 11:04:25;;;;;;;22.65;14.13;;;5.60;60.40;;;;;;5073220;28;20484;-74
2021/03/08 11:06:51;;;;;;;18.02;11.13;;;5.50;60.70;;;;;;5064018;28;20025;-73
2021/03/08 11:09:27;;;;;;;16.10;10.52;;;5.30;60.90;;;;;;5069764;28;20020;-73
2021/03/08 11:11:53;;;;;;;10.07;5.82;;;5.10;61.30;;;;;;5051290;28;20048;-73
2021/03/08 11:14:20;;;;;;;10.05;5.40;;;4.80;61.10;;;;;;5055302;28;20025;-75
2021/03/08 11:16:55;;;;;;;8.55;4.57;;;4.60;60.50;;;;;;5055742;28;20028;-73
2021/03/08 11:19:30;;;;;;;7.53;4.40;;;4.40;60.30;;;;;;5055332;28;20107;-73
2021/03/08 11:22:16;;;;;;;9.13;4.33;;;4.30;60.20;;;;;;5054982;28;20029;-75
2021/03/08 11:24:48;;;;;;;11.63;4.53;;;4.20;60.50;;;;;;5069121;28;20506;-75
2021/03/08 11:27:16;;;;;;;8.98;4.50;;;4.20;60.20;;;;;;5045624;28;20032;-74
2021/03/08 11:30:09;;;;;;;11.48;4.75;;;4.10;60.10;;;;;;5060321;28;20486;-75
2021/03/08 11:32:36;;;;;;;8.05;3.88;;;4.20;60.00;;;;;;5037633;28;20348;-74
2021/03/08 11:35:03;;;;;;;8.95;4.30;;;4.20;59.70;;;;;;5037050;28;20437;-74
2021/03/08 11:37:33;;;;;;;11.05;4.82;;;4.20;59.60;;;;;;5055404;28;20450;-73
2021/03/08 11:40:06;;;;;;;9.85;4.35;;;4.30;59.40;;;;;;5054921;28;20021;-73
2021/03/08 11:42:33;;;;;;;12.02;5.22;;;4.30;59.20;;;;;;5055193;28;20025;-73
2021/03/08 11:44:59;;;;;;;9.77;4.00;;;4.30;58.90;;;;;;5036644;28;20036;-73
2021/03/08 11:47:24;;;;;;;8.38;3.75;;;4.30;58.60;;;;;;5054316;28;20033;-72
2021/03/08 11:49:50;;;;;;;9.70;3.67;;;4.20;58.40;;;;;;5054913;28;20365;-73
2021/03/08 11:52:16;;;;;;;10.48;4.65;;;4.20;58.40;;;;;;5054584;28;20020;-73
2021/03/08 11:54:42;;;;;;;7.90;3.63;;;4.30;58.50;;;;;;5036616;28;20460;-74
2021/03/08 11:57:10;;;;;;;8.45;4.20;;;4.30;58.00;;;;;;5054195;28;20021;-73
2021/03/08 11:59:36;;;;;;;8.38;3.95;;;4.30;58.00;;;;;;5054810;28;20025;-73
2021/03/08 12:02:02;;;;;;;10.55;4.82;;;4.20;58.00;;;;;;5037071;28;20037;-72
2021/03/08 12:04:28;;;;;;;9.07;4.20;;;4.20;58.30;;;;;;5037227;28;20021;-73
2021/03/08 12:06:54;;;;;;;10.57;4.53;;;4.10;58.50;;;;;;5054403;28;20036;-72
2021/03/08 12:09:20;;;;;;;10.02;4.28;;;4.20;58.90;;;;;;5054056;28;20032;-73
2021/03/08 12:11:47;;;;;;;9.02;4.72;;;4.30;59.20;;;;;;5054234;28;20387;-72
2021/03/08 12:14:12;;;;;;;9.48;4.47;;;4.50;59.30;;;;;;5054697;28;20078;-72
2021/03/08 12:16:38;;;;;;;9.27;4.07;;;4.60;59.40;;;;;;5036238;28;20387;-72
2021/03/08 12:19:04;;;;;;;7.40;4.28;;;4.60;59.30;;;;;;5054323;28;20025;-73
2021/03/08 12:21:30;;;;;;;8.20;4.25;;;4.70;59.30;;;;;;5036228;28;20029;-72
2021/03/08 12:23:57;;;;;;;8.30;4.40;;;4.70;59.20;;;;;;5036374;28;20479;-73
2021/03/08 12:26:23;;;;;;;7.65;3.58;;;4.60;59.20;;;;;;5036240;28;20123;-73
2021/03/08 12:28:49;;;;;;;6.53;3.30;;;4.60;59.30;;;;;;5054252;28;20036;-73
2021/03/08 12:31:17;;;;;;;7.20;3.67;;;4.50;59.50;;;;;;5035797;28;20115;-74
2021/03/08 12:33:43;;;;;;;7.00;3.40;;;4.50;59.80;;;;;;5053746;28;20021;-73
2021/03/08 12:36:09;;;;;;;6.15;3.55;;;4.50;59.40;;;;;;5054013;28;20027;-74
2021/03/08 12:38:35;;;;;;;4.78;2.70;;;4.40;59.50;;;;;;5035725;28;20048;-73
2021/03/08 12:41:02;;;;;;;6.57;2.60;;;4.40;60.30;;;;;;5035995;28;20032;-73
2021/03/08 12:43:29;;;;;;;4.38;2.47;;;4.40;60.00;;;;;;5053702;28;20063;-74
2021/03/08 12:45:55;;;;;;;4.65;2.47;;;4.30;60.70;;;;;;5035877;28;20104;-74
2021/03/08 12:48:20;;;;;;;5.72;2.63;;;4.30;61.30;;;;;;5053651;28;20468;-76
2021/03/08 12:50:46;;;;;;;5.72;2.95;;;4.40;61.60;;;;;;5053979;28;20029;-75
2021/03/08 12:53:12;;;;;;;6.55;2.95;;;4.50;61.40;;;;;;5035386;28;20071;-75
2021/03/08 12:55:41;;;;;;;5.13;3.10;;;4.70;60.90;;;;;;5035634;28;20475;-73
2021/03/08 12:58:07;;;;;;;4.88;2.00;;;4.80;60.40;;;;;;5053445;28;20033;-74
2021/03/08 13:00:33;;;;;;;4.63;2.08;;;4.70;59.90;;;;;;5035695;28;20025;-74
2021/03/08 13:02:59;;;;;;;5.20;2.38;;;4.80;59.90;;;;;;5035398;28;20142;-74
2021/03/08 13:05:25;;;;;;;5.07;2.65;;;5.10;59.60;;;;;;5053370;28;20507;-74
2021/03/08 13:07:51;;;;;;;5.15;2.30;;;5.30;58.80;;;;;;5035521;28;20029;-73